Events

Displaying 8301 - 8400 of 8536

Download data entry template

Text Pg Order within Page Date Location Chronological Order Creation date Updated datesort descending
Absalom, Absalom! 29 1 1833-09-01 to 1835-12-31 Jefferson General Compson's|Mr. Compson's Office in Absalom, Absalom! (Location) 61.30 view Fri, 2017-12-01 13:52 Tue, 2022-06-21 09:06
Absalom, Absalom! 31 1 1838-01-01 to 1838-12-31 Jefferson Methodist Church in Absalom, Absalom! (Location) 89.00 view Fri, 2017-12-01 14:13 Tue, 2022-06-21 09:07
Absalom, Absalom! 32 1 1838-01-02 to 1838-12-31 Coldfield's Store in Absalom, Absalom! (Location) 90.00 view Fri, 2017-12-01 14:16 Tue, 2022-06-21 09:08
Absalom, Absalom! 33 1 1838-01-03 to 1838-01-31 Compson Place in Absalom, Absalom! (Location) 91.00 view Fri, 2017-12-01 14:28 Tue, 2022-06-21 09:08
Absalom, Absalom! 33 2 1838-04-01 to 1838-04-29 Courthouse and Square in Absalom, Absalom! (Location) 92.00 view Fri, 2017-12-01 14:34 Tue, 2022-06-21 09:09
Absalom, Absalom! 34 1 1838-04-02 to 1838-04-30 Northwest Road|Jefferson to Memphis in Absalom, Absalom! (Location) 93.00 view Fri, 2017-12-01 14:45 Tue, 2022-06-21 09:10
Absalom, Absalom! 34 2 1838-04-02 to 1838-04-30 Holston House in Absalom, Absalom! (Location) 94.00 view Fri, 2017-12-01 14:50 Tue, 2022-06-21 09:10
Absalom, Absalom! 35 1 1838-04-02 to 1838-04-30 Courthouse and Square in Absalom, Absalom! (Location) 95.00 view Fri, 2017-12-01 14:55 Tue, 2022-06-21 09:10
Absalom, Absalom! 39 2 1838-04-03 to 1838-05-31 Courthouse and Square in Absalom, Absalom! (Location) 100.00 view Fri, 2017-12-01 15:44 Tue, 2022-06-21 09:12
Absalom, Absalom! 40 1 1820-03-01 to 1820-12-31 Tidewater Virginia in Absalom, Absalom! (Location) 15.00 view Fri, 2017-12-01 15:47 Tue, 2022-06-21 09:12
Absalom, Absalom! 40 2 1855-01-01 to 1855-12-31 Sutpen's Stable in Absalom, Absalom! (Location) 142.50 view Fri, 2017-12-01 15:51 Tue, 2022-06-21 09:13
Absalom, Absalom! 42 2 1838-06-03 to 1838-06-30 Compson Place in Absalom, Absalom! (Location) 105.00 view Fri, 2017-12-01 16:19 Tue, 2022-06-21 09:13
Absalom, Absalom! 42 3 1858-06-03 to 1858-12-31 Compson Place in Absalom, Absalom! (Location) 154.00 view Fri, 2017-12-01 16:22 Tue, 2022-06-21 09:14
Absalom, Absalom! 49 1 1845-01-01 to 1859-12-31 Coldfield House in Absalom, Absalom! (Location) 120.00 view Sat, 2017-12-02 09:02 Tue, 2022-06-21 09:24
Absalom, Absalom! 55 1 1859-12-25 to 1860-09-01 Sutpen Plantation in Absalom, Absalom! (Location) 192.00 view Sat, 2017-12-02 10:18 Tue, 2022-06-21 09:24
Absalom, Absalom! 56 4 1860-06-01 to 1860-08-31 Courthouse and Square in Absalom, Absalom! (Location) 216.00 view Sat, 2017-12-02 10:35 Tue, 2022-06-21 09:25
Absalom, Absalom! 56 5 1848-01-01 to 1860-08-31 Sutpen Plantation in Absalom, Absalom! (Location) 122.00 view Sat, 2017-12-02 10:41 Tue, 2022-06-21 09:25
Absalom, Absalom! 60 4 1855-01-01 to 1860-08-31 Courthouse and Square in Absalom, Absalom! (Location) 151.00 view Sat, 2017-12-02 14:24 Tue, 2022-06-21 09:25
Absalom, Absalom! 62 1 1860-12-21 to 1860-12-25 Sutpen Plantation in Absalom, Absalom! (Location) 267.00 view Sat, 2017-12-02 14:54 Tue, 2022-06-21 09:26
Absalom, Absalom! 64 4 1861-09-01 to 1861-12-31 Coldfield House in Absalom, Absalom! (Location) 314.00 view Sat, 2017-12-02 15:28 Tue, 2022-06-21 09:28
Absalom, Absalom! 65 2 1885-01-01 to 1885-12-31 Coldfield House in Absalom, Absalom! (Location) 463.00 view Sat, 2017-12-02 15:34 Tue, 2022-06-21 09:28
Absalom, Absalom! 66 4 1862-01-01 to 1863-12-31 Sutpen Plantation in Absalom, Absalom! (Location) 316.00 view Sat, 2017-12-02 16:00 Tue, 2022-06-21 09:29
Absalom, Absalom! 67 1 1860-12-25 to 1865-05-03 Sutpen Plantation in Absalom, Absalom! (Location) 269.50 view Sat, 2017-12-02 16:03 Tue, 2022-06-21 09:29
Absalom, Absalom! 70 1 1909-09-06 Compson Place in Absalom, Absalom! (Location) 497.00 view Sun, 2017-12-03 08:05 Tue, 2022-06-21 09:29
Absalom, Absalom! 71 1 1909-09-06 Compson Place in Absalom, Absalom! (Location) 498.00 view Sun, 2017-12-03 08:08 Tue, 2022-06-21 09:30
Absalom, Absalom! 84 1 1860-12-24 Sutpen Plantation in Absalom, Absalom! (Location) 266.00 view Sun, 2017-12-03 14:30 Tue, 2022-06-21 09:32
Absalom, Absalom! 85 2 1909-09-06 Compson Place in Absalom, Absalom! (Location) 501.00 view Sun, 2017-12-03 15:05 Tue, 2022-06-21 09:33
Absalom, Absalom! 100 6 1865-05-10 to 1865-05-12 Compson Place in Absalom, Absalom! (Location) 384.00 view Mon, 2017-12-04 13:15 Tue, 2022-06-21 09:35
Absalom, Absalom! 145 1 1869-08-12 Fishing Camp|Hunting Camp in Absalom, Absalom! (Location) 414.10 view Wed, 2022-01-26 11:12 Tue, 2022-06-21 09:37
Absalom, Absalom! 147 3 1910-01-13 Harvard University|Cambridge Area in Absalom, Absalom! (Location) 528.00 view Wed, 2017-12-06 08:01 Tue, 2022-06-21 09:38
Absalom, Absalom! 149 6 1852-01-01 to 1860-12-31 Sutpen's Scuppernong Arbor in Absalom, Absalom! (Location) 139.20 view Wed, 2017-12-06 08:26 Tue, 2022-06-21 09:40
Absalom, Absalom! 151 1 1869-08-12 Fishing Camp|Hunting Camp in Absalom, Absalom! (Location) 414.50 view Wed, 2017-12-06 09:17 Tue, 2022-06-21 09:41
Absalom, Absalom! 154 1 1862-07-01 to 1864-11-30 Sutpen Plantation in Absalom, Absalom! (Location) 326.00 view Wed, 2017-12-06 10:42 Tue, 2022-06-21 09:43
Absalom, Absalom! 156 1 1908-09-01 to 1908-10-31 Sutpen Graveyard in Absalom, Absalom! (Location) 470.00 view Wed, 2017-12-06 11:22 Tue, 2022-06-21 09:45
Absalom, Absalom! 157 1 1908-09-01 to 1908-10-31 Sutpen Graveyard in Absalom, Absalom! (Location) 471.00 view Wed, 2017-12-06 11:32 Tue, 2022-06-21 09:45
Absalom, Absalom! 163 1 1872-01-01 to 1874-12-31 Courthouse and Square in Absalom, Absalom! (Location) 440.00 view Wed, 2017-12-06 14:23 Tue, 2022-06-21 09:46
Absalom, Absalom! 166 2 1882-01-01 to 1882-12-31 Sutpen Plantation in Absalom, Absalom! (Location) 457.00 view Wed, 2017-12-06 15:08 Tue, 2022-06-21 09:48
Absalom, Absalom! 168 1 1909-09-06 Compson Place in Absalom, Absalom! (Location) 504.50 view Wed, 2017-12-06 15:31 Tue, 2022-06-21 09:49
Absalom, Absalom! 168 2 1910-01-13 Harvard University|Cambridge Area in Absalom, Absalom! (Location) 531.00 view Wed, 2017-12-06 15:39 Tue, 2022-06-21 09:49
Absalom, Absalom! 168 3 1881-01-01 to 1881-12-31 Sutpen Plantation in Absalom, Absalom! (Location) 453.00 view Wed, 2017-12-06 15:45 Tue, 2022-06-21 09:50
Absalom, Absalom! 169 1 1881-01-02 to 1884-12-30 Sutpen Plantation in Absalom, Absalom! (Location) 454.00 view Wed, 2017-12-06 15:50 Tue, 2022-06-21 09:51
Absalom, Absalom! 170 3 1910-01-13 Harvard University|Cambridge Area in Absalom, Absalom! (Location) 531.50 view Wed, 2017-12-06 16:09 Tue, 2022-06-21 09:51
Absalom, Absalom! 170 4 1908-09-01 to 1908-10-31 Sutpen Graveyard in Absalom, Absalom! (Location) 472.00 view Wed, 2017-12-06 16:23 Tue, 2022-06-21 09:51
Absalom, Absalom! 171 1 1910-01-13 Harvard University|Cambridge Area in Absalom, Absalom! (Location) 532.00 view Thu, 2017-12-07 09:07 Tue, 2022-06-21 09:52
Absalom, Absalom! 174 2 1882-01-01 to 1909-09-06 Slave Quarters at Sutpen's in Absalom, Absalom! (Location) 458.00 view Thu, 2017-12-07 09:55 Tue, 2022-06-21 10:19
Absalom, Absalom! 174 1 1908-09-01 to 1908-10-31 Sutpen Graveyard in Absalom, Absalom! (Location) 475.00 view Thu, 2017-12-07 09:51 Tue, 2022-06-21 10:20
Absalom, Absalom! 175 2 1909-09-06 Sutpen Plantation in Absalom, Absalom! (Location) 509.00 view Thu, 2017-12-07 10:00 Tue, 2022-06-21 10:20
Absalom, Absalom! 176 1 1910-01-13 Harvard University|Cambridge Area in Absalom, Absalom! (Location) 534.00 view Thu, 2017-12-07 10:25 Tue, 2022-06-21 10:21
Absalom, Absalom! 177 1 1834-06-01 to 1834-08-31 Sutpen Plantation in Absalom, Absalom! (Location) 63.00 view Thu, 2017-12-07 10:29 Tue, 2022-06-21 10:22
Absalom, Absalom! 177 4 1910-01-13 Harvard University|Cambridge Area in Absalom, Absalom! (Location) 537.00 view Thu, 2017-12-07 10:39 Tue, 2022-06-21 10:23
Absalom, Absalom! 178 3 1820-03-01 to 1820-12-31 Sutpen Plantation in Absalom, Absalom! (Location) 10.00 view Thu, 2017-12-07 10:55 Tue, 2022-06-21 10:24
Absalom, Absalom! 180 1 1817-01-01 to 1817-12-31 Tidewater Virginia in Absalom, Absalom! (Location) 4.00 view Mon, 2020-02-03 16:13 Tue, 2022-06-21 10:25
Absalom, Absalom! 180 3 1817-01-01 to 1817-12-31 Virginia in Absalom, Absalom! (Location) 4.10 view Thu, 2017-12-07 11:06 Tue, 2022-06-21 10:25
Absalom, Absalom! 181 1 1817-01-01 to 1817-12-31 Western Virginia in Absalom, Absalom! (Location) 2.00 view Thu, 2017-12-07 11:09 Tue, 2022-06-21 10:26
Absalom, Absalom! 181 2 1817-01-02 to 1818-12-31 Virginia in Absalom, Absalom! (Location) 3.00 view Thu, 2017-12-07 11:19 Tue, 2022-06-21 10:26
Absalom, Absalom! 183 1 1818-01-01 to 1819-12-31 Tidewater Virginia in Absalom, Absalom! (Location) 5.00 view Thu, 2017-12-07 11:26 Tue, 2022-06-21 10:27
Absalom, Absalom! 184 1 1818-01-02 to 1819-12-31 Tidewater Virginia in Absalom, Absalom! (Location) 6.00 view Thu, 2017-12-07 12:44 Tue, 2022-06-21 10:27
Absalom, Absalom! 185 1 1820-03-01 to 1820-12-31 Tidewater Virginia in Absalom, Absalom! (Location) 11.00 view Thu, 2017-12-07 12:48 Tue, 2022-06-21 10:27
Absalom, Absalom! 186 1 1818-01-01 to 1819-12-31 Tidewater Virginia in Absalom, Absalom! (Location) 7.00 view Thu, 2017-12-07 12:55 Tue, 2022-06-21 10:27
Absalom, Absalom! 188 1 1820-03-01 to 1820-12-31 Tidewater Virginia in Absalom, Absalom! (Location) 12.00 view Thu, 2017-12-07 13:01 Tue, 2022-06-21 10:28
Absalom, Absalom! 188 2 1820-03-01 to 1820-12-31 Tidewater Virginia in Absalom, Absalom! (Location) 13.00 view Thu, 2017-12-07 13:09 Tue, 2022-06-21 10:28
Absalom, Absalom! 190 1 1820-03-01 to 1820-12-31 Tidewater Virginia in Absalom, Absalom! (Location) 14.00 view Thu, 2017-12-07 13:18 Tue, 2022-06-21 10:29
Absalom, Absalom! 192 1 1910-01-13 Harvard University|Cambridge Area in Absalom, Absalom! (Location) 539.00 view Thu, 2017-12-07 13:26 Tue, 2022-06-21 10:29
Absalom, Absalom! 193 2 1823-01-01 to 1823-12-31 Haiti in Absalom, Absalom! (Location) 18.00 view Thu, 2017-12-07 13:36 Tue, 2022-06-21 10:30
Absalom, Absalom! 194 1 1831-01-01 to 1832-12-31 Haiti in Absalom, Absalom! (Location) 36.00 view Thu, 2017-12-07 13:44 Tue, 2022-06-21 10:30
Absalom, Absalom! 194 3 1819-11-01 to 1820-02-28 Tidewater Virginia in Absalom, Absalom! (Location) 8.00 view Thu, 2017-12-07 14:01 Tue, 2022-06-21 10:31
Absalom, Absalom! 195 1 1819-11-02 to 1820-02-28 Tidewater Virginia in Absalom, Absalom! (Location) 9.00 view Thu, 2017-12-07 14:03 Tue, 2022-06-21 10:31
Absalom, Absalom! 196 1 1820-03-02 to 1820-12-31 Tidewater Virginia in Absalom, Absalom! (Location) 16.00 view Thu, 2017-12-07 14:12 Tue, 2022-06-21 10:31
Absalom, Absalom! 198 3 1826-01-10 to 1826-12-31 Haiti in Absalom, Absalom! (Location) 25.00 view Thu, 2017-12-07 14:39 Tue, 2022-06-21 10:32
Absalom, Absalom! 199 1 1823-01-01 to 1826-12-31 Haiti in Absalom, Absalom! (Location) 19.00 view Thu, 2017-12-07 14:43 Tue, 2022-06-21 10:32
Absalom, Absalom! 199 2 1910-01-13 Harvard University|Cambridge Area in Absalom, Absalom! (Location) 540.00 view Thu, 2017-12-07 14:46 Tue, 2022-06-21 10:33
Absalom, Absalom! 199 3 1864-11-01 to 1864-11-30 Jefferson General Compson's|Mr. Compson's Office in Absalom, Absalom! (Location) 333.60 view Thu, 2017-12-07 14:48 Tue, 2022-06-21 10:33
Absalom, Absalom! 199 4 1826-01-10 to 1826-12-31 Haiti in Absalom, Absalom! (Location) 26.00 view Thu, 2017-12-07 15:19 Tue, 2022-06-21 10:34
Absalom, Absalom! 199 6 1834-06-03 to 1834-08-31 Downed Log in Absalom! in Absalom, Absalom! (Location) 73.00 view Thu, 2017-12-07 15:33 Tue, 2022-06-21 10:34
Absalom, Absalom! 200 1 1826-01-10 to 1826-12-31 Haiti in Absalom, Absalom! (Location) 29.00 view Thu, 2017-12-07 15:42 Tue, 2022-06-21 10:35
Absalom, Absalom! 201 1 1826-01-10 to 1826-12-31 Haiti in Absalom, Absalom! (Location) 28.00 view Thu, 2017-12-07 15:47 Tue, 2022-06-21 10:36
Absalom, Absalom! 201 2 1826-01-10 to 1826-12-31 Haiti in Absalom, Absalom! (Location) 24.50 view Thu, 2017-12-07 15:50 Tue, 2022-06-21 10:36
Absalom, Absalom! 201 3 1823-01-01 to 1825-12-31 Haiti in Absalom, Absalom! (Location) 20.00 view Thu, 2017-12-07 16:23 Tue, 2022-06-21 10:36
Absalom, Absalom! 202 1 1826-01-01 to 1826-12-31 Haiti in Absalom, Absalom! (Location) 21.00 view Thu, 2017-12-07 16:27 Tue, 2022-06-21 10:37
Absalom, Absalom! 203 1 1826-01-01 to 1826-12-31 Haiti in Absalom, Absalom! (Location) 22.00 view Thu, 2017-12-07 16:34 Tue, 2022-06-21 10:37
Absalom, Absalom! 203 2 1826-01-10 to 1826-12-31 Haiti in Absalom, Absalom! (Location) 24.70 view Thu, 2017-12-07 16:39 Tue, 2022-06-21 10:38
Absalom, Absalom! 203 3 1826-01-07 to 1826-12-31 Haiti in Absalom, Absalom! (Location) 23.00 view Thu, 2017-12-07 16:42 Tue, 2022-06-21 10:38
Absalom, Absalom! 204 1 1826-01-07 to 1826-12-31 Haiti in Absalom, Absalom! (Location) 24.00 view Thu, 2017-12-07 16:56 Tue, 2022-06-21 10:39
Absalom, Absalom! 204 2 1826-01-10 to 1826-12-31 Haiti in Absalom, Absalom! (Location) 27.00 view Thu, 2017-12-07 17:00 Tue, 2022-06-21 10:40
Absalom, Absalom! 204 3 1826-01-18 to 1826-12-31 Haiti in Absalom, Absalom! (Location) 30.00 view Thu, 2017-12-07 17:03 Tue, 2022-06-21 10:40
Absalom, Absalom! 204 5 1826-01-18 to 1826-12-31 Haiti in Absalom, Absalom! (Location) 31.00 view Thu, 2017-12-07 17:08 Tue, 2022-06-21 10:40
Absalom, Absalom! 205 2 1826-01-19 to 1826-01-31 Haiti in Absalom, Absalom! (Location) 32.00 view Thu, 2017-12-07 17:12 Tue, 2022-06-21 10:41
Absalom, Absalom! 206 1 1910-01-13 Harvard University|Cambridge Area in Absalom, Absalom! (Location) 542.50 view Fri, 2017-12-08 11:06 Tue, 2022-06-21 10:41
Absalom, Absalom! 208 3 1836-01-01 to 1838-12-31 Coldfield's Store in Absalom, Absalom! (Location) 85.00 view Fri, 2017-12-08 11:27 Tue, 2022-06-21 10:42
Absalom, Absalom! 209 1 1859-01-01 to 1861-12-31 Coldfield House in Absalom, Absalom! (Location) 157.00 view Fri, 2017-12-08 11:31 Tue, 2022-06-21 10:42
Absalom, Absalom! 209 2 1835-01-01 to 1845-12-31 Sutpen Plantation in Absalom, Absalom! (Location) 84.00 view Fri, 2017-12-08 11:36 Tue, 2022-06-21 10:43
Absalom, Absalom! 210 1 1864-11-01 to 1864-11-30 Jefferson General Compson's|Mr. Compson's Office in Absalom, Absalom! (Location) 334.20 view Fri, 2017-12-08 11:40 Tue, 2022-06-21 10:44
Absalom, Absalom! 210 2 1910-01-13 Harvard University|Cambridge Area in Absalom, Absalom! (Location) 544.00 view Fri, 2017-12-08 11:43 Tue, 2022-06-21 10:45
Absalom, Absalom! 212 1 1827-01-01 to 1827-12-31 Haiti in Absalom, Absalom! (Location) 33.00 view Fri, 2017-12-08 11:57 Tue, 2022-06-21 10:45
Absalom, Absalom! 212 2 1831-01-01 to 1831-12-31 Haiti in Absalom, Absalom! (Location) 35.00 view Fri, 2017-12-08 12:05 Tue, 2022-06-21 10:45
Absalom, Absalom! 213 4 1831-01-01 to 1831-12-31 Haiti in Absalom, Absalom! (Location) 37.00 view Fri, 2017-12-08 13:27 Tue, 2022-06-21 10:46
Absalom, Absalom! 214 2 1910-01-13 Harvard University|Cambridge Area in Absalom, Absalom! (Location) 546.00 view Fri, 2017-12-08 13:33 Tue, 2022-06-21 10:47
Absalom, Absalom! 214 3 1859-12-25 Sutpen Plantation in Absalom, Absalom! (Location) 184.00 view Fri, 2017-12-08 13:38 Tue, 2022-06-21 10:48
Absalom, Absalom! 215 2 1859-12-25 to 1860-01-07 Sutpen Plantation in Absalom, Absalom! (Location) 185.00 view Fri, 2017-12-08 13:43 Tue, 2022-06-21 10:48
Absalom, Absalom! 215 3 1860-01-05 to 1860-05-31 Sutpen Plantation in Absalom, Absalom! (Location) 202.50 view Fri, 2017-12-08 13:46 Tue, 2022-06-21 10:49

Pages

Subscribe to Events